sensor_id;sensor_type;location;lat;lon;timestamp;P1;durP1;ratioP1;P2;durP2;ratioP2
48623;SDS011;34422;45.802;16.114;2023-07-13T00:01:53;16.48;;;9.23;;
48623;SDS011;34422;45.802;16.114;2023-07-13T00:04:21;13.68;;;8.73;;
48623;SDS011;34422;45.802;16.114;2023-07-13T00:06:49;21.02;;;9.20;;
48623;SDS011;34422;45.802;16.114;2023-07-13T00:09:17;16.25;;;8.43;;
48623;SDS011;34422;45.802;16.114;2023-07-13T00:11:45;12.32;;;8.38;;
48623;SDS011;34422;45.802;16.114;2023-07-13T00:14:13;19.63;;;9.18;;
48623;SDS011;34422;45.802;16.114;2023-07-13T00:16:42;15.65;;;8.98;;
48623;SDS011;34422;45.802;16.114;2023-07-13T00:19:12;17.23;;;8.68;;
48623;SDS011;34422;45.802;16.114;2023-07-13T00:21:40;20.27;;;9.82;;
48623;SDS011;34422;45.802;16.114;2023-07-13T00:24:08;17.95;;;9.73;;
48623;SDS011;34422;45.802;16.114;2023-07-13T00:26:41;19.45;;;9.93;;
48623;SDS011;34422;45.802;16.114;2023-07-13T00:29:12;17.02;;;9.02;;
48623;SDS011;34422;45.802;16.114;2023-07-13T00:31:40;16.38;;;9.60;;
48623;SDS011;34422;45.802;16.114;2023-07-13T00:34:07;20.88;;;9.32;;
48623;SDS011;34422;45.802;16.114;2023-07-13T00:36:33;20.13;;;9.30;;
48623;SDS011;34422;45.802;16.114;2023-07-13T00:39:00;15.82;;;9.75;;
48623;SDS011;34422;45.802;16.114;2023-07-13T00:41:28;18.67;;;9.57;;
48623;SDS011;34422;45.802;16.114;2023-07-13T00:43:54;19.02;;;10.45;;
48623;SDS011;34422;45.802;16.114;2023-07-13T00:46:25;19.08;;;10.68;;
48623;SDS011;34422;45.802;16.114;2023-07-13T00:48:59;15.55;;;10.10;;
48623;SDS011;34422;45.802;16.114;2023-07-13T00:51:31;15.38;;;8.77;;
48623;SDS011;34422;45.802;16.114;2023-07-13T00:54:05;15.70;;;8.70;;
48623;SDS011;34422;45.802;16.114;2023-07-13T00:56:35;17.52;;;9.65;;
48623;SDS011;34422;45.802;16.114;2023-07-13T00:59:04;16.73;;;9.60;;
48623;SDS011;34422;45.802;16.114;2023-07-13T01:01:33;20.55;;;9.55;;
48623;SDS011;34422;45.802;16.114;2023-07-13T01:04:00;20.15;;;9.60;;
48623;SDS011;34422;45.802;16.114;2023-07-13T01:06:26;14.52;;;8.68;;
48623;SDS011;34422;45.802;16.114;2023-07-13T01:08:53;15.43;;;9.45;;
48623;SDS011;34422;45.802;16.114;2023-07-13T01:11:22;15.95;;;8.98;;
48623;SDS011;34422;45.802;16.114;2023-07-13T01:13:49;19.10;;;9.30;;
48623;SDS011;34422;45.802;16.114;2023-07-13T01:16:26;17.20;;;9.88;;
48623;SDS011;34422;45.802;16.114;2023-07-13T01:18:56;18.17;;;9.48;;
48623;SDS011;34422;45.802;16.114;2023-07-13T01:21:28;17.17;;;9.45;;
48623;SDS011;34422;45.802;16.114;2023-07-13T01:23:56;16.20;;;10.32;;
48623;SDS011;34422;45.802;16.114;2023-07-13T01:26:23;17.58;;;10.07;;
48623;SDS011;34422;45.802;16.114;2023-07-13T01:28:50;19.52;;;13.27;;
48623;SDS011;34422;45.802;16.114;2023-07-13T01:31:17;17.52;;;11.27;;
48623;SDS011;34422;45.802;16.114;2023-07-13T01:33:43;19.50;;;11.23;;
48623;SDS011;34422;45.802;16.114;2023-07-13T01:36:11;19.27;;;10.13;;
48623;SDS011;34422;45.802;16.114;2023-07-13T01:38:38;21.60;;;9.95;;
48623;SDS011;34422;45.802;16.114;2023-07-13T01:41:05;16.80;;;9.57;;
48623;SDS011;34422;45.802;16.114;2023-07-13T01:43:31;20.67;;;10.65;;
48623;SDS011;34422;45.802;16.114;2023-07-13T01:45:59;19.17;;;9.98;;
48623;SDS011;34422;45.802;16.114;2023-07-13T01:48:25;20.90;;;9.73;;
48623;SDS011;34422;45.802;16.114;2023-07-13T01:50:52;23.10;;;10.40;;
48623;SDS011;34422;45.802;16.114;2023-07-13T01:53:19;17.52;;;9.73;;
48623;SDS011;34422;45.802;16.114;2023-07-13T01:55:45;18.25;;;9.70;;
48623;SDS011;34422;45.802;16.114;2023-07-13T01:58:13;14.85;;;9.10;;
48623;SDS011;34422;45.802;16.114;2023-07-13T02:00:39;22.63;;;10.05;;
48623;SDS011;34422;45.802;16.114;2023-07-13T02:03:06;18.55;;;9.27;;
48623;SDS011;34422;45.802;16.114;2023-07-13T02:05:33;20.48;;;9.90;;
48623;SDS011;34422;45.802;16.114;2023-07-13T02:08:00;18.02;;;9.90;;
48623;SDS011;34422;45.802;16.114;2023-07-13T02:10:26;17.83;;;9.18;;
48623;SDS011;34422;45.802;16.114;2023-07-13T02:12:54;22.55;;;10.38;;
48623;SDS011;34422;45.802;16.114;2023-07-13T02:15:21;16.48;;;9.70;;
48623;SDS011;34422;45.802;16.114;2023-07-13T02:17:48;20.60;;;10.50;;
48623;SDS011;34422;45.802;16.114;2023-07-13T02:20:15;18.98;;;10.15;;
48623;SDS011;34422;45.802;16.114;2023-07-13T02:22:41;21.83;;;10.88;;
48623;SDS011;34422;45.802;16.114;2023-07-13T02:25:09;24.33;;;10.43;;
48623;SDS011;34422;45.802;16.114;2023-07-13T02:27:35;22.05;;;10.43;;
48623;SDS011;34422;45.802;16.114;2023-07-13T02:30:02;20.33;;;10.70;;
48623;SDS011;34422;45.802;16.114;2023-07-13T02:32:29;21.33;;;10.50;;
48623;SDS011;34422;45.802;16.114;2023-07-13T02:34:56;18.50;;;10.00;;
48623;SDS011;34422;45.802;16.114;2023-07-13T02:37:23;25.30;;;10.40;;
48623;SDS011;34422;45.802;16.114;2023-07-13T02:39:50;25.05;;;10.73;;
48623;SDS011;34422;45.802;16.114;2023-07-13T02:42:17;21.95;;;9.75;;
48623;SDS011;34422;45.802;16.114;2023-07-13T02:44:43;23.65;;;9.93;;
48623;SDS011;34422;45.802;16.114;2023-07-13T02:47:10;17.02;;;10.40;;
48623;SDS011;34422;45.802;16.114;2023-07-13T02:49:37;21.10;;;10.07;;
48623;SDS011;34422;45.802;16.114;2023-07-13T02:52:04;17.98;;;8.93;;
48623;SDS011;34422;45.802;16.114;2023-07-13T02:54:31;19.55;;;8.75;;
48623;SDS011;34422;45.802;16.114;2023-07-13T02:56:58;23.20;;;10.32;;
48623;SDS011;34422;45.802;16.114;2023-07-13T02:59:25;21.42;;;10.35;;
48623;SDS011;34422;45.802;16.114;2023-07-13T03:01:52;21.80;;;10.55;;
48623;SDS011;34422;45.802;16.114;2023-07-13T03:04:19;18.98;;;9.68;;
48623;SDS011;34422;45.802;16.114;2023-07-13T03:14:21;16.83;;;9.10;;
48623;SDS011;34422;45.802;16.114;2023-07-13T03:16:49;15.50;;;8.80;;
48623;SDS011;34422;45.802;16.114;2023-07-13T03:19:15;18.23;;;8.70;;
48623;SDS011;34422;45.802;16.114;2023-07-13T03:21:42;24.23;;;9.63;;
48623;SDS011;34422;45.802;16.114;2023-07-13T03:24:09;16.52;;;8.70;;
48623;SDS011;34422;45.802;16.114;2023-07-13T03:26:36;18.63;;;7.78;;
48623;SDS011;34422;45.802;16.114;2023-07-13T03:29:03;14.43;;;6.55;;
48623;SDS011;34422;45.802;16.114;2023-07-13T03:31:33;14.10;;;5.78;;
48623;SDS011;34422;45.802;16.114;2023-07-13T03:34:01;14.00;;;5.78;;
48623;SDS011;34422;45.802;16.114;2023-07-13T03:36:28;14.35;;;5.47;;
48623;SDS011;34422;45.802;16.114;2023-07-13T03:38:57;13.27;;;5.28;;
48623;SDS011;34422;45.802;16.114;2023-07-13T03:41:26;10.35;;;4.55;;
48623;SDS011;34422;45.802;16.114;2023-07-13T03:43:53;10.43;;;4.28;;
48623;SDS011;34422;45.802;16.114;2023-07-13T03:46:20;10.07;;;4.22;;
48623;SDS011;34422;45.802;16.114;2023-07-13T03:48:47;10.40;;;3.90;;
48623;SDS011;34422;45.802;16.114;2023-07-13T03:51:15;6.65;;;3.17;;
48623;SDS011;34422;45.802;16.114;2023-07-13T03:53:44;9.18;;;3.55;;
48623;SDS011;34422;45.802;16.114;2023-07-13T03:56:13;9.02;;;3.15;;
48623;SDS011;34422;45.802;16.114;2023-07-13T03:58:42;9.45;;;3.30;;
48623;SDS011;34422;45.802;16.114;2023-07-13T04:01:11;8.88;;;3.20;;
48623;SDS011;34422;45.802;16.114;2023-07-13T04:03:38;7.68;;;2.72;;
48623;SDS011;34422;45.802;16.114;2023-07-13T04:06:07;7.70;;;1.88;;
48623;SDS011;34422;45.802;16.114;2023-07-13T04:08:35;9.85;;;2.03;;
48623;SDS011;34422;45.802;16.114;2023-07-13T04:11:03;6.40;;;1.60;;
48623;SDS011;34422;45.802;16.114;2023-07-13T04:13:31;5.25;;;1.40;;
48623;SDS011;34422;45.802;16.114;2023-07-13T04:15:58;10.05;;;1.45;;
48623;SDS011;34422;45.802;16.114;2023-07-13T04:18:25;5.15;;;1.23;;
48623;SDS011;34422;45.802;16.114;2023-07-13T04:20:51;5.25;;;1.50;;
48623;SDS011;34422;45.802;16.114;2023-07-13T04:23:18;7.30;;;1.60;;
48623;SDS011;34422;45.802;16.114;2023-07-13T04:25:46;7.65;;;1.40;;
48623;SDS011;34422;45.802;16.114;2023-07-13T04:28:16;5.38;;;2.28;;
48623;SDS011;34422;45.802;16.114;2023-07-13T04:30:44;5.13;;;1.50;;
48623;SDS011;34422;45.802;16.114;2023-07-13T04:33:11;6.65;;;1.30;;
48623;SDS011;34422;45.802;16.114;2023-07-13T04:35:38;6.25;;;1.33;;
48623;SDS011;34422;45.802;16.114;2023-07-13T04:38:05;6.32;;;2.13;;
48623;SDS011;34422;45.802;16.114;2023-07-13T04:40:32;14.40;;;1.95;;
48623;SDS011;34422;45.802;16.114;2023-07-13T04:42:59;4.68;;;1.30;;
48623;SDS011;34422;45.802;16.114;2023-07-13T04:45:26;5.38;;;1.40;;
48623;SDS011;34422;45.802;16.114;2023-07-13T04:47:53;8.00;;;1.42;;
48623;SDS011;34422;45.802;16.114;2023-07-13T04:50:20;3.20;;;1.08;;
48623;SDS011;34422;45.802;16.114;2023-07-13T04:52:50;4.97;;;1.27;;
48623;SDS011;34422;45.802;16.114;2023-07-13T04:55:17;15.27;;;1.92;;
48623;SDS011;34422;45.802;16.114;2023-07-13T04:57:45;10.45;;;1.88;;
48623;SDS011;34422;45.802;16.114;2023-07-13T05:00:13;6.60;;;1.75;;
48623;SDS011;34422;45.802;16.114;2023-07-13T05:02:43;7.10;;;1.55;;
48623;SDS011;34422;45.802;16.114;2023-07-13T05:05:11;7.40;;;1.20;;
48623;SDS011;34422;45.802;16.114;2023-07-13T05:07:38;4.47;;;1.52;;
48623;SDS011;34422;45.802;16.114;2023-07-13T05:10:05;5.20;;;1.50;;
48623;SDS011;34422;45.802;16.114;2023-07-13T05:12:32;3.92;;;1.08;;
48623;SDS011;34422;45.802;16.114;2023-07-13T05:14:59;4.72;;;1.10;;
48623;SDS011;34422;45.802;16.114;2023-07-13T05:17:26;8.15;;;1.35;;
48623;SDS011;34422;45.802;16.114;2023-07-13T05:19:56;4.70;;;1.40;;
48623;SDS011;34422;45.802;16.114;2023-07-13T05:22:22;3.70;;;1.23;;
48623;SDS011;34422;45.802;16.114;2023-07-13T05:24:49;3.85;;;1.25;;
48623;SDS011;34422;45.802;16.114;2023-07-13T05:27:16;4.95;;;1.20;;
48623;SDS011;34422;45.802;16.114;2023-07-13T05:29:43;5.90;;;1.30;;
48623;SDS011;34422;45.802;16.114;2023-07-13T05:32:10;8.30;;;1.13;;
48623;SDS011;34422;45.802;16.114;2023-07-13T05:34:37;6.60;;;1.00;;
48623;SDS011;34422;45.802;16.114;2023-07-13T05:37:04;5.03;;;1.25;;
48623;SDS011;34422;45.802;16.114;2023-07-13T05:39:31;5.97;;;1.67;;
48623;SDS011;34422;45.802;16.114;2023-07-13T05:41:58;5.03;;;1.15;;
48623;SDS011;34422;45.802;16.114;2023-07-13T05:44:25;4.80;;;1.23;;
48623;SDS011;34422;45.802;16.114;2023-07-13T05:46:51;3.88;;;1.00;;
48623;SDS011;34422;45.802;16.114;2023-07-13T05:49:18;4.22;;;1.10;;
48623;SDS011;34422;45.802;16.114;2023-07-13T05:51:45;5.07;;;1.15;;
48623;SDS011;34422;45.802;16.114;2023-07-13T05:54:12;5.35;;;1.10;;
48623;SDS011;34422;45.802;16.114;2023-07-13T05:56:38;5.85;;;1.25;;
48623;SDS011;34422;45.802;16.114;2023-07-13T05:59:05;3.88;;;0.98;;
48623;SDS011;34422;45.802;16.114;2023-07-13T06:01:32;3.08;;;0.82;;
48623;SDS011;34422;45.802;16.114;2023-07-13T06:03:59;4.25;;;1.00;;
48623;SDS011;34422;45.802;16.114;2023-07-13T06:06:26;2.80;;;0.80;;
48623;SDS011;34422;45.802;16.114;2023-07-13T06:08:53;4.38;;;1.08;;
48623;SDS011;34422;45.802;16.114;2023-07-13T06:11:22;5.63;;;1.23;;
48623;SDS011;34422;45.802;16.114;2023-07-13T06:13:52;7.32;;;0.93;;
48623;SDS011;34422;45.802;16.114;2023-07-13T06:16:20;8.30;;;1.27;;
48623;SDS011;34422;45.802;16.114;2023-07-13T06:18:48;6.20;;;1.30;;
48623;SDS011;34422;45.802;16.114;2023-07-13T06:21:16;2.78;;;0.90;;
48623;SDS011;34422;45.802;16.114;2023-07-13T06:23:47;5.07;;;1.10;;
48623;SDS011;34422;45.802;16.114;2023-07-13T06:26:15;5.93;;;1.35;;
48623;SDS011;34422;45.802;16.114;2023-07-13T06:28:43;9.93;;;1.60;;
48623;SDS011;34422;45.802;16.114;2023-07-13T06:31:11;6.10;;;1.33;;
48623;SDS011;34422;45.802;16.114;2023-07-13T06:33:38;3.58;;;1.00;;
48623;SDS011;34422;45.802;16.114;2023-07-13T06:36:06;3.63;;;1.20;;
48623;SDS011;34422;45.802;16.114;2023-07-13T06:38:34;5.18;;;1.38;;
48623;SDS011;34422;45.802;16.114;2023-07-13T06:41:01;4.55;;;0.95;;
48623;SDS011;34422;45.802;16.114;2023-07-13T06:43:28;5.55;;;1.00;;
48623;SDS011;34422;45.802;16.114;2023-07-13T06:45:56;4.97;;;1.02;;
48623;SDS011;34422;45.802;16.114;2023-07-13T06:48:22;3.88;;;1.35;;
48623;SDS011;34422;45.802;16.114;2023-07-13T06:50:50;4.45;;;1.15;;
48623;SDS011;34422;45.802;16.114;2023-07-13T06:53:18;5.75;;;1.45;;
48623;SDS011;34422;45.802;16.114;2023-07-13T06:55:47;4.63;;;1.00;;
48623;SDS011;34422;45.802;16.114;2023-07-13T06:58:15;5.18;;;1.30;;
48623;SDS011;34422;45.802;16.114;2023-07-13T07:00:43;4.57;;;1.17;;
48623;SDS011;34422;45.802;16.114;2023-07-13T07:03:12;6.55;;;1.50;;
48623;SDS011;34422;45.802;16.114;2023-07-13T07:05:39;4.35;;;1.08;;
48623;SDS011;34422;45.802;16.114;2023-07-13T07:08:06;3.95;;;1.00;;
48623;SDS011;34422;45.802;16.114;2023-07-13T07:10:33;7.03;;;1.30;;
48623;SDS011;34422;45.802;16.114;2023-07-13T07:13:01;3.83;;;1.25;;
48623;SDS011;34422;45.802;16.114;2023-07-13T07:15:28;3.58;;;1.13;;
48623;SDS011;34422;45.802;16.114;2023-07-13T07:17:56;8.65;;;3.63;;
48623;SDS011;34422;45.802;16.114;2023-07-13T07:20:23;7.25;;;1.50;;
48623;SDS011;34422;45.802;16.114;2023-07-13T07:22:50;3.13;;;0.90;;
48623;SDS011;34422;45.802;16.114;2023-07-13T07:25:17;5.03;;;1.38;;
48623;SDS011;34422;45.802;16.114;2023-07-13T07:27:44;6.03;;;1.20;;
48623;SDS011;34422;45.802;16.114;2023-07-13T07:30:11;4.55;;;1.17;;
48623;SDS011;34422;45.802;16.114;2023-07-13T07:32:39;5.00;;;1.48;;
48623;SDS011;34422;45.802;16.114;2023-07-13T07:35:05;3.40;;;1.00;;
48623;SDS011;34422;45.802;16.114;2023-07-13T07:37:33;3.08;;;1.05;;
48623;SDS011;34422;45.802;16.114;2023-07-13T07:39:59;6.05;;;1.20;;
48623;SDS011;34422;45.802;16.114;2023-07-13T07:42:26;3.38;;;1.00;;
48623;SDS011;34422;45.802;16.114;2023-07-13T07:44:54;4.30;;;1.10;;
48623;SDS011;34422;45.802;16.114;2023-07-13T07:47:21;5.07;;;1.40;;
48623;SDS011;34422;45.802;16.114;2023-07-13T07:49:49;5.00;;;1.30;;
48623;SDS011;34422;45.802;16.114;2023-07-13T07:52:16;6.38;;;1.13;;
48623;SDS011;34422;45.802;16.114;2023-07-13T07:54:43;5.93;;;1.27;;
48623;SDS011;34422;45.802;16.114;2023-07-13T07:57:10;4.47;;;1.27;;
48623;SDS011;34422;45.802;16.114;2023-07-13T07:59:37;4.22;;;1.05;;
48623;SDS011;34422;45.802;16.114;2023-07-13T08:02:04;4.90;;;1.40;;
48623;SDS011;34422;45.802;16.114;2023-07-13T08:04:32;3.40;;;1.20;;
48623;SDS011;34422;45.802;16.114;2023-07-13T08:06:58;7.93;;;2.03;;
48623;SDS011;34422;45.802;16.114;2023-07-13T08:09:29;4.13;;;1.10;;
48623;SDS011;34422;45.802;16.114;2023-07-13T08:11:56;5.72;;;1.90;;
48623;SDS011;34422;45.802;16.114;2023-07-13T08:14:23;4.50;;;1.40;;
48623;SDS011;34422;45.802;16.114;2023-07-13T08:16:50;4.50;;;1.77;;
48623;SDS011;34422;45.802;16.114;2023-07-13T08:19:16;5.05;;;1.40;;
48623;SDS011;34422;45.802;16.114;2023-07-13T08:21:43;6.13;;;1.20;;
48623;SDS011;34422;45.802;16.114;2023-07-13T08:24:10;6.15;;;2.03;;
48623;SDS011;34422;45.802;16.114;2023-07-13T08:26:37;4.15;;;1.20;;
48623;SDS011;34422;45.802;16.114;2023-07-13T08:29:04;5.85;;;1.80;;
48623;SDS011;34422;45.802;16.114;2023-07-13T08:31:31;5.10;;;1.63;;
48623;SDS011;34422;45.802;16.114;2023-07-13T08:33:58;7.40;;;1.73;;
48623;SDS011;34422;45.802;16.114;2023-07-13T08:36:25;5.30;;;1.52;;
48623;SDS011;34422;45.802;16.114;2023-07-13T08:38:54;5.85;;;1.30;;
48623;SDS011;34422;45.802;16.114;2023-07-13T08:41:21;6.03;;;1.90;;
48623;SDS011;34422;45.802;16.114;2023-07-13T08:43:49;4.50;;;1.23;;
48623;SDS011;34422;45.802;16.114;2023-07-13T08:48:49;5.53;;;1.65;;
48623;SDS011;34422;45.802;16.114;2023-07-13T08:54:36;5.90;;;1.60;;
48623;SDS011;34422;45.802;16.114;2023-07-13T08:57:15;4.32;;;1.40;;
48623;SDS011;34422;45.802;16.114;2023-07-13T08:59:44;4.60;;;1.15;;
48623;SDS011;34422;45.802;16.114;2023-07-13T09:05:12;5.00;;;1.60;;
48623;SDS011;34422;45.802;16.114;2023-07-13T09:10:43;7.15;;;1.42;;
48623;SDS011;34422;45.802;16.114;2023-07-13T09:15:48;6.90;;;1.45;;
48623;SDS011;34422;45.802;16.114;2023-07-13T09:18:27;6.35;;;1.45;;
48623;SDS011;34422;45.802;16.114;2023-07-13T09:23:29;4.90;;;1.63;;
48623;SDS011;34422;45.802;16.114;2023-07-13T09:26:11;9.43;;;2.10;;
48623;SDS011;34422;45.802;16.114;2023-07-13T09:28:43;13.00;;;1.58;;
48623;SDS011;34422;45.802;16.114;2023-07-13T09:34:00;5.83;;;1.60;;
48623;SDS011;34422;45.802;16.114;2023-07-13T09:36:28;4.72;;;1.27;;
48623;SDS011;34422;45.802;16.114;2023-07-13T09:39:02;6.03;;;1.45;;
48623;SDS011;34422;45.802;16.114;2023-07-13T09:41:46;6.32;;;1.63;;
48623;SDS011;34422;45.802;16.114;2023-07-13T09:44:49;8.63;;;2.05;;
48623;SDS011;34422;45.802;16.114;2023-07-13T09:49:57;5.25;;;1.27;;
48623;SDS011;34422;45.802;16.114;2023-07-13T09:52:42;5.63;;;1.40;;
48623;SDS011;34422;45.802;16.114;2023-07-13T09:57:52;4.93;;;1.65;;
48623;SDS011;34422;45.802;16.114;2023-07-13T10:00:21;5.90;;;1.50;;
48623;SDS011;34422;45.802;16.114;2023-07-13T10:02:59;7.72;;;1.73;;
48623;SDS011;34422;45.802;16.114;2023-07-13T10:05:37;6.00;;;2.10;;
48623;SDS011;34422;45.802;16.114;2023-07-13T10:08:05;6.88;;;1.98;;
48623;SDS011;34422;45.802;16.114;2023-07-13T10:10:36;6.82;;;1.90;;
48623;SDS011;34422;45.802;16.114;2023-07-13T10:13:03;7.47;;;2.20;;
48623;SDS011;34422;45.802;16.114;2023-07-13T10:15:31;5.57;;;2.13;;
48623;SDS011;34422;45.802;16.114;2023-07-13T10:17:59;5.20;;;1.67;;
48623;SDS011;34422;45.802;16.114;2023-07-13T10:20:27;7.38;;;1.90;;
48623;SDS011;34422;45.802;16.114;2023-07-13T10:22:55;6.68;;;2.15;;
48623;SDS011;34422;45.802;16.114;2023-07-13T10:25:29;7.80;;;1.90;;
48623;SDS011;34422;45.802;16.114;2023-07-13T10:28:01;7.53;;;1.95;;
48623;SDS011;34422;45.802;16.114;2023-07-13T10:30:33;6.35;;;1.63;;
48623;SDS011;34422;45.802;16.114;2023-07-13T10:33:09;6.85;;;2.30;;
48623;SDS011;34422;45.802;16.114;2023-07-13T10:35:38;6.03;;;2.22;;
48623;SDS011;34422;45.802;16.114;2023-07-13T10:38:12;9.45;;;2.45;;
48623;SDS011;34422;45.802;16.114;2023-07-13T10:40:57;6.88;;;1.88;;
48623;SDS011;34422;45.802;16.114;2023-07-13T10:43:28;6.93;;;1.88;;
48623;SDS011;34422;45.802;16.114;2023-07-13T10:46:00;9.98;;;2.53;;
48623;SDS011;34422;45.802;16.114;2023-07-13T10:48:28;5.57;;;1.80;;
48623;SDS011;34422;45.802;16.114;2023-07-13T10:50:58;5.10;;;1.75;;
48623;SDS011;34422;45.802;16.114;2023-07-13T10:53:31;7.60;;;2.20;;
48623;SDS011;34422;45.802;16.114;2023-07-13T10:56:00;7.75;;;2.13;;
48623;SDS011;34422;45.802;16.114;2023-07-13T10:58:48;6.05;;;1.90;;
48623;SDS011;34422;45.802;16.114;2023-07-13T11:04:43;7.32;;;2.20;;
48623;SDS011;34422;45.802;16.114;2023-07-13T11:07:22;7.20;;;2.17;;
48623;SDS011;34422;45.802;16.114;2023-07-13T11:09:55;7.50;;;1.90;;
48623;SDS011;34422;45.802;16.114;2023-07-13T11:20:19;8.27;;;2.25;;
48623;SDS011;34422;45.802;16.114;2023-07-13T11:25:35;5.65;;;1.90;;
48623;SDS011;34422;45.802;16.114;2023-07-13T11:33:27;6.95;;;2.42;;
48623;SDS011;34422;45.802;16.114;2023-07-13T11:36:15;6.88;;;2.30;;
48623;SDS011;34422;45.802;16.114;2023-07-13T11:38:47;7.20;;;2.30;;
48623;SDS011;34422;45.802;16.114;2023-07-13T11:41:22;8.25;;;2.40;;
48623;SDS011;34422;45.802;16.114;2023-07-13T11:43:53;5.60;;;2.30;;
48623;SDS011;34422;45.802;16.114;2023-07-13T11:46:22;7.55;;;2.28;;
48623;SDS011;34422;45.802;16.114;2023-07-13T11:48:53;7.65;;;2.28;;
48623;SDS011;34422;45.802;16.114;2023-07-13T11:51:28;5.35;;;1.98;;
48623;SDS011;34422;45.802;16.114;2023-07-13T11:54:02;7.93;;;2.30;;
48623;SDS011;34422;45.802;16.114;2023-07-13T11:56:41;6.55;;;2.25;;
48623;SDS011;34422;45.802;16.114;2023-07-13T11:59:10;4.97;;;1.85;;
48623;SDS011;34422;45.802;16.114;2023-07-13T12:01:43;5.55;;;2.05;;
48623;SDS011;34422;45.802;16.114;2023-07-13T12:04:19;6.78;;;2.10;;
48623;SDS011;34422;45.802;16.114;2023-07-13T12:09:35;7.05;;;2.22;;
48623;SDS011;34422;45.802;16.114;2023-07-13T12:12:03;6.70;;;1.75;;
48623;SDS011;34422;45.802;16.114;2023-07-13T12:14:33;8.05;;;2.00;;
48623;SDS011;34422;45.802;16.114;2023-07-13T12:17:00;9.80;;;3.28;;
48623;SDS011;34422;45.802;16.114;2023-07-13T12:19:27;5.03;;;2.20;;
48623;SDS011;34422;45.802;16.114;2023-07-13T12:21:56;10.30;;;2.40;;
48623;SDS011;34422;45.802;16.114;2023-07-13T12:24:25;7.18;;;2.00;;
48623;SDS011;34422;45.802;16.114;2023-07-13T12:26:54;10.13;;;2.75;;
48623;SDS011;34422;45.802;16.114;2023-07-13T12:29:27;5.80;;;2.25;;
48623;SDS011;34422;45.802;16.114;2023-07-13T12:31:54;5.88;;;2.53;;
48623;SDS011;34422;45.802;16.114;2023-07-13T12:34:23;5.57;;;2.05;;
48623;SDS011;34422;45.802;16.114;2023-07-13T12:36:52;6.07;;;2.60;;
48623;SDS011;34422;45.802;16.114;2023-07-13T12:42:21;5.90;;;2.00;;
48623;SDS011;34422;45.802;16.114;2023-07-13T12:44:53;6.38;;;2.53;;
48623;SDS011;34422;45.802;16.114;2023-07-13T12:47:22;5.38;;;2.28;;
48623;SDS011;34422;45.802;16.114;2023-07-13T12:49:50;5.38;;;2.55;;
48623;SDS011;34422;45.802;16.114;2023-07-13T12:52:32;6.57;;;2.08;;
48623;SDS011;34422;45.802;16.114;2023-07-13T12:55:19;7.88;;;2.63;;
48623;SDS011;34422;45.802;16.114;2023-07-13T12:57:52;6.40;;;2.45;;
48623;SDS011;34422;45.802;16.114;2023-07-13T13:00:34;7.30;;;2.83;;
48623;SDS011;34422;45.802;16.114;2023-07-13T13:03:05;8.27;;;2.55;;
48623;SDS011;34422;45.802;16.114;2023-07-13T13:05:48;6.22;;;2.35;;
48623;SDS011;34422;45.802;16.114;2023-07-13T13:08:15;7.63;;;2.45;;
48623;SDS011;34422;45.802;16.114;2023-07-13T13:10:42;5.57;;;2.30;;
48623;SDS011;34422;45.802;16.114;2023-07-13T13:13:09;7.13;;;2.20;;
48623;SDS011;34422;45.802;16.114;2023-07-13T13:15:40;6.68;;;2.50;;
48623;SDS011;34422;45.802;16.114;2023-07-13T13:18:20;6.93;;;2.20;;
48623;SDS011;34422;45.802;16.114;2023-07-13T13:20:49;6.30;;;2.92;;
48623;SDS011;34422;45.802;16.114;2023-07-13T13:23:18;5.13;;;2.58;;
48623;SDS011;34422;45.802;16.114;2023-07-13T13:25:46;5.10;;;2.33;;
48623;SDS011;34422;45.802;16.114;2023-07-13T13:30:45;5.85;;;2.15;;
48623;SDS011;34422;45.802;16.114;2023-07-13T13:33:14;8.90;;;2.60;;
48623;SDS011;34422;45.802;16.114;2023-07-13T13:35:43;6.47;;;2.33;;
48623;SDS011;34422;45.802;16.114;2023-07-13T13:38:11;7.03;;;2.13;;
48623;SDS011;34422;45.802;16.114;2023-07-13T13:40:43;5.53;;;2.60;;
48623;SDS011;34422;45.802;16.114;2023-07-13T13:43:15;5.88;;;2.65;;
48623;SDS011;34422;45.802;16.114;2023-07-13T13:45:53;9.68;;;2.90;;
48623;SDS011;34422;45.802;16.114;2023-07-13T13:48:32;6.35;;;2.60;;
48623;SDS011;34422;45.802;16.114;2023-07-13T13:51:00;6.38;;;2.47;;
48623;SDS011;34422;45.802;16.114;2023-07-13T13:53:38;7.13;;;3.00;;
48623;SDS011;34422;45.802;16.114;2023-07-13T13:56:05;5.93;;;2.60;;
48623;SDS011;34422;45.802;16.114;2023-07-13T13:58:32;5.57;;;2.10;;
48623;SDS011;34422;45.802;16.114;2023-07-13T14:00:59;6.70;;;2.80;;
48623;SDS011;34422;45.802;16.114;2023-07-13T14:03:26;6.13;;;2.45;;
48623;SDS011;34422;45.802;16.114;2023-07-13T14:05:54;4.57;;;2.20;;
48623;SDS011;34422;45.802;16.114;2023-07-13T14:08:23;6.18;;;2.63;;
48623;SDS011;34422;45.802;16.114;2023-07-13T14:10:52;16.92;;;1.75;;
48623;SDS011;34422;45.802;16.114;2023-07-13T14:13:24;11.75;;;2.00;;
48623;SDS011;34422;45.802;16.114;2023-07-13T14:15:59;6.00;;;1.25;;
48623;SDS011;34422;45.802;16.114;2023-07-13T14:18:26;6.13;;;1.25;;
48623;SDS011;34422;45.802;16.114;2023-07-13T14:20:52;4.50;;;1.38;;
48623;SDS011;34422;45.802;16.114;2023-07-13T14:23:21;6.78;;;2.33;;
48623;SDS011;34422;45.802;16.114;2023-07-13T14:25:47;7.00;;;2.88;;
48623;SDS011;34422;45.802;16.114;2023-07-13T14:28:17;6.50;;;2.58;;
48623;SDS011;34422;45.802;16.114;2023-07-13T14:30:48;8.88;;;3.60;;
48623;SDS011;34422;45.802;16.114;2023-07-13T14:33:16;5.95;;;3.08;;
48623;SDS011;34422;45.802;16.114;2023-07-13T14:35:44;8.05;;;3.63;;
48623;SDS011;34422;45.802;16.114;2023-07-13T14:38:22;7.22;;;3.95;;
48623;SDS011;34422;45.802;16.114;2023-07-13T14:40:49;8.20;;;3.83;;
48623;SDS011;34422;45.802;16.114;2023-07-13T14:43:16;12.90;;;4.28;;
48623;SDS011;34422;45.802;16.114;2023-07-13T14:45:45;8.95;;;4.38;;
48623;SDS011;34422;45.802;16.114;2023-07-13T14:48:20;8.68;;;3.85;;
48623;SDS011;34422;45.802;16.114;2023-07-13T14:50:58;11.95;;;4.78;;
48623;SDS011;34422;45.802;16.114;2023-07-13T14:53:27;9.07;;;4.90;;
48623;SDS011;34422;45.802;16.114;2023-07-13T14:55:57;12.27;;;4.78;;
48623;SDS011;34422;45.802;16.114;2023-07-13T14:58:24;9.23;;;4.25;;
48623;SDS011;34422;45.802;16.114;2023-07-13T15:00:51;7.40;;;3.58;;
48623;SDS011;34422;45.802;16.114;2023-07-13T15:05:51;9.90;;;3.90;;
48623;SDS011;34422;45.802;16.114;2023-07-13T15:08:19;10.90;;;4.45;;
48623;SDS011;34422;45.802;16.114;2023-07-13T15:10:46;7.20;;;3.55;;
48623;SDS011;34422;45.802;16.114;2023-07-13T15:13:17;8.45;;;3.83;;
48623;SDS011;34422;45.802;16.114;2023-07-13T15:15:46;9.25;;;3.85;;
48623;SDS011;34422;45.802;16.114;2023-07-13T15:18:15;8.65;;;3.10;;
48623;SDS011;34422;45.802;16.114;2023-07-13T15:23:12;6.18;;;2.60;;
48623;SDS011;34422;45.802;16.114;2023-07-13T15:25:41;6.13;;;2.80;;
48623;SDS011;34422;45.802;16.114;2023-07-13T15:28:12;6.75;;;2.70;;
48623;SDS011;34422;45.802;16.114;2023-07-13T15:30:44;5.47;;;2.50;;
48623;SDS011;34422;45.802;16.114;2023-07-13T15:33:33;6.97;;;2.85;;
48623;SDS011;34422;45.802;16.114;2023-07-13T15:36:03;6.53;;;3.13;;
48623;SDS011;34422;45.802;16.114;2023-07-13T15:38:36;7.18;;;2.50;;
48623;SDS011;34422;45.802;16.114;2023-07-13T15:41:15;8.13;;;2.92;;
48623;SDS011;34422;45.802;16.114;2023-07-13T15:43:44;8.27;;;3.28;;
48623;SDS011;34422;45.802;16.114;2023-07-13T15:46:11;5.70;;;2.42;;
48623;SDS011;34422;45.802;16.114;2023-07-13T15:48:38;9.55;;;3.00;;